EPD57 EGPD-EGPH
Flight info
| Callsign | EPD57 |
|---|---|
| Flight time | 0h 36m |
| Altitude | 6000 |
| Route | NAXIL DCT IBOLU DCT PIPAR |
| Aircraft | BE58/L-SDFGRY/C |
Departure
| Time | 2026-04-26 15:32 |
|---|---|
| Airport | Aberdeen International Airport (EGPD) |
Arrival
| Time | 2026-04-26 16:08 |
|---|---|
| Airport | Edinburgh Airport (EGPH) |
| Time | Latitude | Longitude | Altitude | Speed | Heading |
|---|---|---|---|---|---|
| 2026-04-26 15:17 | 57.20830 | -2.20727 | 208 ft | 0 kts | 278° |
| 2026-04-26 15:19 | 57.20832 | -2.20736 | 217 ft | 1 kts | 305° |
| 2026-04-26 15:19 | 57.20830 | -2.20723 | 209 ft | 0 kts | 269° |
| 2026-04-26 15:20 | 57.20830 | -2.20724 | 208 ft | 2 kts | 266° |
| 2026-04-26 15:20 | 57.20826 | -2.20740 | 213 ft | 0 kts | 218° |
| 2026-04-26 15:21 | 57.20830 | -2.20723 | 208 ft | 0 kts | 269° |
| 2026-04-26 15:26 | 57.20255 | -2.20576 | 207 ft | 0 kts | 109° |
| 2026-04-26 15:27 | 57.20249 | -2.20545 | 209 ft | 10 kts | 108° |
| 2026-04-26 15:28 | 57.20308 | -2.20392 | 207 ft | 17 kts | 38° |
| 2026-04-26 15:28 | 57.20410 | -2.20373 | 210 ft | 15 kts | 336° |
| 2026-04-26 15:28 | 57.20505 | -2.20391 | 212 ft | 13 kts | 24° |
| 2026-04-26 15:28 | 57.20590 | -2.20374 | 208 ft | 12 kts | 331° |
| 2026-04-26 15:29 | 57.20658 | -2.20451 | 209 ft | 12 kts | 332° |
| 2026-04-26 15:29 | 57.20735 | -2.20507 | 212 ft | 12 kts | 340° |
| 2026-04-26 15:29 | 57.20915 | -2.20643 | 210 ft | 15 kts | 338° |
| 2026-04-26 15:30 | 57.21032 | -2.20428 | 208 ft | 14 kts | 110° |
| 2026-04-26 15:30 | 57.20950 | -2.20338 | 210 ft | 14 kts | 160° |
| 2026-04-26 15:30 | 57.20878 | -2.20285 | 210 ft | 0 kts | 158° |
| 2026-04-26 15:31 | 57.20876 | -2.20283 | 209 ft | 6 kts | 158° |
| 2026-04-26 15:32 | 57.19889 | -2.19552 | 496 ft | 141 kts | 158° |
| 2026-04-26 15:32 | 57.18674 | -2.18603 | 1273 ft | 147 kts | 156° |
| 2026-04-26 15:32 | 57.17704 | -2.17970 | 1822 ft | 143 kts | 174° |
| 2026-04-26 15:33 | 57.16833 | -2.17865 | 2825 ft | 107 kts | 175° |
| 2026-04-26 15:33 | 57.16106 | -2.17949 | 3613 ft | 108 kts | 200° |
| 2026-04-26 15:33 | 57.15438 | -2.18617 | 4282 ft | 111 kts | 212° |
| 2026-04-26 15:33 | 57.14732 | -2.19625 | 4651 ft | 142 kts | 223° |
| 2026-04-26 15:34 | 57.14021 | -2.20720 | 5569 ft | 124 kts | 219° |
| 2026-04-26 15:34 | 57.13363 | -2.21699 | 6366 ft | 122 kts | 221° |
| 2026-04-26 15:34 | 57.12710 | -2.22747 | 7049 ft | 129 kts | 223° |
| 2026-04-26 15:34 | 57.11999 | -2.23978 | 7462 ft | 144 kts | 223° |
| 2026-04-26 15:35 | 57.11287 | -2.25212 | 8027 ft | 152 kts | 226° |
| 2026-04-26 15:35 | 57.10482 | -2.26738 | 8071 ft | 179 kts | 226° |
| 2026-04-26 15:35 | 57.09580 | -2.28452 | 8070 ft | 191 kts | 226° |
| 2026-04-26 15:35 | 57.08642 | -2.30243 | 8075 ft | 196 kts | 226° |
| 2026-04-26 15:36 | 57.07691 | -2.32061 | 8083 ft | 198 kts | 226° |
| 2026-04-26 15:36 | 57.06732 | -2.33893 | 8078 ft | 199 kts | 226° |
| 2026-04-26 15:36 | 57.05771 | -2.35727 | 8080 ft | 199 kts | 226° |
| 2026-04-26 15:36 | 57.04812 | -2.37563 | 8078 ft | 199 kts | 226° |
| 2026-04-26 15:37 | 57.03855 | -2.39393 | 8082 ft | 199 kts | 226° |
| 2026-04-26 15:37 | 57.02909 | -2.41198 | 8097 ft | 198 kts | 226° |
| 2026-04-26 15:37 | 57.01974 | -2.43049 | 8136 ft | 196 kts | 231° |
| 2026-04-26 15:37 | 57.01183 | -2.44788 | 8820 ft | 170 kts | 230° |
| 2026-04-26 15:38 | 57.00476 | -2.46474 | 9349 ft | 157 kts | 235° |
| 2026-04-26 15:38 | 56.99899 | -2.48074 | 9960 ft | 154 kts | 238° |
| 2026-04-26 15:38 | 56.99255 | -2.49859 | 9873 ft | 179 kts | 234° |
| 2026-04-26 15:38 | 56.98470 | -2.51738 | 9589 ft | 201 kts | 232° |
| 2026-04-26 15:39 | 56.97592 | -2.53717 | 9570 ft | 200 kts | 230° |
| 2026-04-26 15:39 | 56.96689 | -2.55657 | 9572 ft | 199 kts | 233° |
| 2026-04-26 15:39 | 56.96050 | -2.57863 | 9634 ft | 195 kts | 249° |
| 2026-04-26 15:39 | 56.95724 | -2.59418 | 9585 ft | 198 kts | 248° |
| 2026-04-26 15:40 | 56.95009 | -2.62531 | 9578 ft | 198 kts | 246° |
| 2026-04-26 15:40 | 56.94462 | -2.64807 | 9582 ft | 197 kts | 246° |
| 2026-04-26 15:40 | 56.94050 | -2.67145 | 9770 ft | 186 kts | 259° |
| 2026-04-26 15:40 | 56.93565 | -2.69386 | 9552 ft | 202 kts | 238° |
| 2026-04-26 15:41 | 56.92788 | -2.71594 | 9369 ft | 204 kts | 237° |
| 2026-04-26 15:41 | 56.91968 | -2.73608 | 9545 ft | 194 kts | 225° |
| 2026-04-26 15:41 | 56.90926 | -2.75182 | 9581 ft | 194 kts | 219° |
| 2026-04-26 15:41 | 56.89857 | -2.76720 | 9582 ft | 197 kts | 218° |
| 2026-04-26 15:42 | 56.88773 | -2.78257 | 9583 ft | 197 kts | 218° |
| 2026-04-26 15:42 | 56.87684 | -2.79798 | 9583 ft | 198 kts | 218° |
| 2026-04-26 15:42 | 56.86595 | -2.81333 | 9584 ft | 198 kts | 218° |
| 2026-04-26 15:42 | 56.85519 | -2.82849 | 9585 ft | 198 kts | 218° |
| 2026-04-26 15:43 | 56.84428 | -2.84389 | 9584 ft | 198 kts | 218° |
| 2026-04-26 15:43 | 56.83337 | -2.85929 | 9585 ft | 198 kts | 218° |
| 2026-04-26 15:43 | 56.81153 | -2.89000 | 9584 ft | 198 kts | 218° |
| 2026-04-26 15:44 | 56.80062 | -2.90531 | 9583 ft | 197 kts | 217° |
| 2026-04-26 15:44 | 56.77702 | -2.93064 | 9584 ft | 197 kts | 211° |
| 2026-04-26 15:44 | 56.76527 | -2.94368 | 9585 ft | 198 kts | 212° |
| 2026-04-26 15:45 | 56.74184 | -2.97003 | 9586 ft | 198 kts | 212° |
| 2026-04-26 15:45 | 56.73010 | -2.98328 | 9588 ft | 198 kts | 212° |
| 2026-04-26 15:46 | 56.70682 | -3.00954 | 9588 ft | 198 kts | 212° |
| 2026-04-26 15:46 | 56.69508 | -3.02277 | 9588 ft | 198 kts | 212° |
| 2026-04-26 15:46 | 56.68335 | -3.03599 | 9588 ft | 198 kts | 212° |
| 2026-04-26 15:46 | 56.67940 | -3.04044 | 9588 ft | 198 kts | 212° |
| 2026-04-26 15:47 | 56.65988 | -3.06242 | 9588 ft | 198 kts | 212° |
| 2026-04-26 15:47 | 56.63646 | -3.08888 | 9588 ft | 198 kts | 212° |
| 2026-04-26 15:47 | 56.62470 | -3.10211 | 9589 ft | 198 kts | 212° |
| 2026-04-26 15:48 | 56.61690 | -3.11077 | 9589 ft | 198 kts | 211° |
| 2026-04-26 15:48 | 56.60116 | -3.12753 | 9588 ft | 198 kts | 211° |
| 2026-04-26 15:48 | 56.58892 | -3.13902 | 9589 ft | 198 kts | 207° |
| 2026-04-26 15:48 | 56.57671 | -3.15076 | 9589 ft | 198 kts | 208° |
| 2026-04-26 15:49 | 56.56465 | -3.16293 | 9589 ft | 198 kts | 210° |
| 2026-04-26 15:49 | 56.55666 | -3.17099 | 9589 ft | 198 kts | 210° |
| 2026-04-26 15:49 | 56.54471 | -3.18354 | 9589 ft | 198 kts | 211° |
| 2026-04-26 15:49 | 56.53289 | -3.19647 | 9590 ft | 198 kts | 212° |
| 2026-04-26 15:50 | 56.52087 | -3.20880 | 9588 ft | 197 kts | 203° |
| 2026-04-26 15:50 | 56.50670 | -3.20947 | 9241 ft | 207 kts | 176° |
| 2026-04-26 15:50 | 56.49278 | -3.20689 | 9380 ft | 192 kts | 154° |
| 2026-04-26 15:50 | 56.48125 | -3.19745 | 9541 ft | 186 kts | 154° |
| 2026-04-26 15:51 | 56.46904 | -3.18867 | 9590 ft | 193 kts | 166° |
| 2026-04-26 15:51 | 56.45568 | -3.18427 | 9598 ft | 196 kts | 174° |
| 2026-04-26 15:51 | 56.44246 | -3.17784 | 9558 ft | 198 kts | 163° |
| 2026-04-26 15:51 | 56.42921 | -3.17107 | 9589 ft | 198 kts | 167° |
| 2026-04-26 15:52 | 56.41574 | -3.16536 | 9592 ft | 199 kts | 168° |
| 2026-04-26 15:52 | 56.40218 | -3.16009 | 9594 ft | 199 kts | 169° |
| 2026-04-26 15:52 | 56.38861 | -3.15507 | 9591 ft | 199 kts | 169° |
| 2026-04-26 15:52 | 56.37959 | -3.15181 | 9596 ft | 199 kts | 169° |
| 2026-04-26 15:53 | 56.36155 | -3.14536 | 9593 ft | 200 kts | 169° |
| 2026-04-26 15:53 | 56.34786 | -3.14087 | 9597 ft | 200 kts | 171° |
| 2026-04-26 15:53 | 56.33419 | -3.13647 | 9596 ft | 199 kts | 170° |
| 2026-04-26 15:53 | 56.32054 | -3.13187 | 9596 ft | 199 kts | 170° |
| 2026-04-26 15:54 | 56.30689 | -3.12735 | 9590 ft | 200 kts | 170° |
| 2026-04-26 15:54 | 56.29319 | -3.12278 | 9598 ft | 200 kts | 170° |
| 2026-04-26 15:54 | 56.27951 | -3.11850 | 9597 ft | 199 kts | 173° |
| 2026-04-26 15:54 | 56.26565 | -3.11673 | 9603 ft | 199 kts | 178° |
| 2026-04-26 15:55 | 56.25176 | -3.11641 | 9591 ft | 200 kts | 178° |
| 2026-04-26 15:55 | 56.23810 | -3.11417 | 9583 ft | 200 kts | 173° |
| 2026-04-26 15:55 | 56.22430 | -3.11072 | 9581 ft | 200 kts | 172° |
| 2026-04-26 15:55 | 56.21056 | -3.10742 | 9586 ft | 199 kts | 176° |
| 2026-04-26 15:56 | 56.19701 | -3.11118 | 9588 ft | 198 kts | 193° |
| 2026-04-26 15:56 | 56.18348 | -3.11628 | 9587 ft | 199 kts | 191° |
| 2026-04-26 15:56 | 56.16984 | -3.12076 | 9584 ft | 199 kts | 191° |
| 2026-04-26 15:56 | 56.15617 | -3.12507 | 9584 ft | 199 kts | 190° |
| 2026-04-26 15:57 | 56.14274 | -3.13051 | 9591 ft | 196 kts | 207° |
| 2026-04-26 15:57 | 56.13044 | -3.14136 | 9589 ft | 198 kts | 206° |
| 2026-04-26 15:57 | 56.11794 | -3.15185 | 9589 ft | 198 kts | 206° |
| 2026-04-26 15:57 | 56.10971 | -3.15904 | 9587 ft | 199 kts | 206° |
| 2026-04-26 15:58 | 56.09300 | -3.17430 | 9325 ft | 208 kts | 211° |
| 2026-04-26 15:58 | 56.08063 | -3.18766 | 9286 ft | 203 kts | 212° |
| 2026-04-26 15:58 | 56.06892 | -3.20085 | 9259 ft | 201 kts | 213° |
| 2026-04-26 15:58 | 56.05815 | -3.21608 | 9463 ft | 187 kts | 230° |
| 2026-04-26 15:59 | 56.05083 | -3.23558 | 9457 ft | 195 kts | 238° |
| 2026-04-26 15:59 | 56.04383 | -3.25692 | 9416 ft | 196 kts | 245° |
| 2026-04-26 15:59 | 56.03944 | -3.27979 | 9457 ft | 196 kts | 257° |
| 2026-04-26 15:59 | 56.03741 | -3.30390 | 9469 ft | 196 kts | 266° |
| 2026-04-26 16:00 | 56.03733 | -3.32822 | 9515 ft | 195 kts | 272° |
| 2026-04-26 16:00 | 56.03820 | -3.35264 | 9499 ft | 197 kts | 275° |
| 2026-04-26 16:00 | 56.03962 | -3.37704 | 9514 ft | 197 kts | 277° |
| 2026-04-26 16:00 | 56.04145 | -3.40130 | 9555 ft | 196 kts | 278° |
| 2026-04-26 16:01 | 56.04333 | -3.42515 | 9569 ft | 197 kts | 278° |
| 2026-04-26 16:01 | 56.04548 | -3.44927 | 9589 ft | 196 kts | 280° |
| 2026-04-26 16:01 | 56.04815 | -3.47330 | 9592 ft | 197 kts | 282° |
| 2026-04-26 16:01 | 56.05147 | -3.49711 | 9602 ft | 197 kts | 285° |
| 2026-04-26 16:02 | 56.05548 | -3.52054 | 9620 ft | 197 kts | 288° |
| 2026-04-26 16:02 | 56.06023 | -3.54355 | 9619 ft | 197 kts | 292° |
| 2026-04-26 16:02 | 56.06585 | -3.56602 | 9634 ft | 197 kts | 298° |
| 2026-04-26 16:02 | 56.06999 | -3.58051 | 9605 ft | 198 kts | 289° |
| 2026-04-26 16:03 | 56.06828 | -3.61288 | 8929 ft | 204 kts | 242° |
| 2026-04-26 16:03 | 56.05851 | -3.63065 | 8594 ft | 193 kts | 210° |
| 2026-04-26 16:03 | 56.04616 | -3.63683 | 8270 ft | 191 kts | 183° |
| 2026-04-26 16:03 | 56.03320 | -3.63650 | 8164 ft | 180 kts | 171° |
| 2026-04-26 16:04 | 56.02118 | -3.63186 | 8095 ft | 174 kts | 171° |
| 2026-04-26 16:04 | 56.00925 | -3.62925 | 8023 ft | 172 kts | 175° |
| 2026-04-26 16:04 | 55.99733 | -3.62753 | 7956 ft | 171 kts | 177° |
| 2026-04-26 16:04 | 55.98543 | -3.62653 | 7908 ft | 171 kts | 177° |
| 2026-04-26 16:05 | 55.97354 | -3.62555 | 7857 ft | 171 kts | 178° |
| 2026-04-26 16:05 | 55.96188 | -3.62256 | 7785 ft | 171 kts | 155° |
| 2026-04-26 16:05 | 55.95240 | -3.61030 | 7700 ft | 172 kts | 129° |
| 2026-04-26 16:05 | 55.94646 | -3.59097 | 7462 ft | 177 kts | 119° |
| 2026-04-26 16:06 | 55.94076 | -3.57232 | 7569 ft | 167 kts | 119° |
| 2026-04-26 16:06 | 55.93535 | -3.55500 | 7586 ft | 156 kts | 117° |
| 2026-04-26 16:06 | 55.92990 | -3.53713 | 7294 ft | 164 kts | 118° |
| 2026-04-26 16:06 | 55.92547 | -3.51781 | 6709 ft | 180 kts | 101° |
| 2026-04-26 16:07 | 55.92445 | -3.49488 | 5906 ft | 182 kts | 90° |
| 2026-04-26 16:07 | 55.92498 | -3.47299 | 4939 ft | 174 kts | 85° |
| 2026-04-26 16:07 | 55.92652 | -3.45191 | 4017 ft | 172 kts | 80° |
| 2026-04-26 16:07 | 55.93013 | -3.43230 | 3218 ft | 158 kts | 61° |
| 2026-04-26 16:08 | 55.93547 | -3.41644 | 2586 ft | 147 kts | 57° |
| 2026-04-26 16:08 | 55.93910 | -3.40610 | 1795 ft | 158 kts | 59° |
| 2026-04-26 16:08 | 55.94665 | -3.38242 | 163 ft | 156 kts | 60° |
| 2026-04-26 16:08 | 55.94963 | -3.37349 | 108 ft | 0 kts | 58° |